| time (UTC) | temp F | wind direction | speed MPH | gust MPH | rain 1hr in | rain 24hr in | rain mn in | humidity % | barometer mb |
| 20260906065359 | 78 | 0.0 | 0.0 | 0.00 | 0.00 | 0.00 | 59 | 1023.2 | |
| 20260906064353 | 77 | 0.0 | 0.0 | 0.00 | 0.00 | 0.00 | 61 | 1023.3 | |
| 20260906063343 | 77 | 0.0 | 0.0 | 0.00 | 0.00 | 0.00 | 60 | 1023.4 | |
| 20260906062358 | 76 | 0.0 | 0.0 | 0.00 | 0.00 | 0.00 | 61 | 1023.6 | |
| 20260906061345 | 76 | 0.0 | 0.0 | 0.00 | 0.00 | 0.00 | 60 | 1023.0 | |
| 20260906060343 | 75 | 0.0 | 0.0 | 0.00 | 0.00 | 0.00 | 59 | 1023.9 | |
| 20260906055343 | 75 | 0.0 | 0.0 | 0.00 | 0.00 | 0.00 | 61 | 1023.0 | |
| 20260906054343 | 74 | 0.0 | 0.0 | 0.00 | 0.00 | 0.00 | 66 | 1023.1 | |
| 20260906053343 | 74 | 0.0 | 0.0 | 0.00 | 0.00 | 0.00 | 72 | 1022.9 | |
| 20260906052343 | 73 | 0.0 | 0.0 | 0.00 | 0.00 | 0.00 | 73 | 1023.1 | |
| 20260906051343 | 72 | 0.0 | 0.0 | 0.00 | 0.00 | 0.00 | 76 | 1023.4 | |
| 20260906050343 | 71 | 0.0 | 0.0 | 0.00 | 0.00 | 0.00 | 77 | 1023.2 | |
| 20260906045358 | 71 | 0.0 | 0.0 | 0.00 | 0.00 | 0.00 | 78 | 1022.9 | |
| 20260906044415 | 70 | 0.0 | 0.0 | 0.00 | 0.00 | 0.00 | 79 | 1023.4 | |
| 20260906043353 | 70 | 0.0 | 0.0 | 0.00 | 0.00 | 0.00 | 79 | 1023.9 | |
| 20260906042344 | 70 | 0.0 | 0.0 | 0.00 | 0.00 | 0.00 | 78 | 1022.5 | |
| 20260906041343 | 69 | 0.0 | 0.0 | 0.00 | 0.00 | 0.00 | 79 | 1023.4 | |
| 20260906040343 | 70 | 0.0 | 0.0 | 0.00 | 0.00 | 0.00 | 78 | 1023.1 | |
| 20260906035344 | 70 | 0.0 | 0.0 | 0.00 | 0.00 | 0.00 | 79 | 1022.8 | |
| 20260906034343 | 69 | 0.0 | 0.0 | 0.00 | 0.00 | 0.00 | 79 | 1023.7 | |
| 20260906033343 | 70 | 0.0 | 0.0 | 0.00 | 0.00 | 0.00 | 77 | 1022.7 | |
| 20260906032343 | 70 | 0.0 | 0.0 | 0.00 | 0.00 | 0.00 | 81 | 1022.1 | |
| 20260906031343 | 69 | 0.0 | 0.0 | 0.00 | 0.00 | 0.00 | 80 | 1024.3 | |
| 20260906030343 | 70 | 0.0 | 0.0 | 0.00 | 0.00 | 0.00 | 79 | 1022.3 | |
| 20260906025343 | 70 | 0.0 | 0.0 | 0.00 | 0.00 | 0.00 | 78 | 1022.8 | |
| 20260906024358 | 70 | 0.0 | 0.0 | 0.00 | 0.00 | 0.00 | 78 | 1023.2 | |
| 20260906023358 | 70 | 0.0 | 0.0 | 0.00 | 0.00 | 0.00 | 77 | 1023.0 | |
| 20260906022343 | 70 | 0.0 | 0.0 | 0.00 | 0.00 | 0.00 | 78 | 1023.0 | |
| 20260906021343 | 71 | 0.0 | 0.0 | 0.00 | 0.00 | 0.00 | 76 | 1022.7 | |
| 20260906020343 | 71 | 0.0 | 0.0 | 0.00 | 0.00 | 0.00 | 78 | 1022.7 | |
| 20260906015358 | 71 | 0.0 | 0.0 | 0.00 | 0.00 | 0.00 | 76 | 1023.4 | |
| 20260906014343 | 72 | 0.0 | 0.0 | 0.00 | 0.00 | 0.00 | 73 | 1023.1 | |
| 20260906013343 | 73 | 0.0 | 0.0 | 0.00 | 0.00 | 0.00 | 72 | 1021.7 | |
| 20260906012343 | 72 | 0.0 | 0.0 | 0.00 | 0.00 | 0.00 | 72 | 1023.9 | |
| 20260906011342 | 73 | 0.0 | 0.0 | 0.00 | 0.00 | 0.00 | 72 | 1022.6 | |
| 20260906010400 | 73 | 0.0 | 0.0 | 0.00 | 0.00 | 0.00 | 71 | 1023.2 | |
| 20260906005343 | 74 | 0.0 | 0.0 | 0.00 | 0.00 | 0.00 | 70 | 1022.9 | |
| 20260906004343 | 74 | 0.0 | 0.0 | 0.00 | 0.00 | 0.00 | 68 | 1022.6 | |
| 20260906003343 | 74 | 0.0 | 0.0 | 0.00 | 0.00 | 0.00 | 67 | 1022.7 | |
| 20260906002342 | 75 | 0.0 | 0.0 | 0.00 | 0.00 | 0.00 | 63 | 1021.5 | |
| 20260906001342 | 74 | 0.0 | 0.0 | 0.00 | 0.00 | 0.00 | 70 | 1022.2 | |
| 20260906000342 | 73 | 0.0 | 0.0 | 0.00 | 0.00 | 0.00 | 76 | 1022.4 | |
| 20260905235342 | 73 | 0.0 | 0.0 | 0.00 | 0.00 | 0.00 | 77 | 1023.2 | |
| 20260905234343 | 73 | 0.0 | 0.0 | 0.00 | 0.00 | 0.00 | 76 | 1022.6 | |
| 20260905233342 | 73 | 0.0 | 0.0 | 0.00 | 0.00 | 0.00 | 77 | 1022.4 | |
| 20260905232342 | 73 | 0.0 | 0.0 | 0.00 | 0.00 | 0.00 | 78 | 1023.5 | |
| 20260905231343 | 74 | 0.0 | 0.0 | 0.00 | 0.00 | 0.00 | 76 | 1022.2 | |
| 20260905230343 | 73 | 0.0 | 0.0 | 0.00 | 0.00 | 0.00 | 76 | 1023.5 | |
| 20260905225342 | 74 | 0.0 | 0.0 | 0.00 | 0.00 | 0.00 | 76 | 1023.0 | |
| 20260905224358 | 74 | 0.0 | 0.0 | 0.00 | 0.00 | 0.00 | 75 | 1023.2 | |
| 20260905223342 | 75 | 0.0 | 0.0 | 0.00 | 0.00 | 0.00 | 73 | 1023.8 | |
| 20260905222343 | 76 | 0.0 | 0.0 | 0.00 | 0.00 | 0.00 | 70 | 1023.5 | |
| 20260905221343 | 77 | 0.0 | 0.0 | 0.00 | 0.00 | 0.00 | 66 | 1022.4 | |
| 20260905220342 | 77 | 0.0 | 0.0 | 0.00 | 0.00 | 0.00 | 65 | 1022.5 | |
| 20260905215343 | 76 | 0.0 | 0.0 | 0.00 | 0.00 | 0.00 | 67 | 1022.2 | |
| 20260905214343 | 76 | 0.0 | 0.0 | 0.00 | 0.00 | 0.00 | 70 | 1023.1 | |
| 20260905213342 | 76 | 0.0 | 0.0 | 0.00 | 0.00 | 0.00 | 70 | 1023.0 | |
| 20260905212343 | 76 | 0.0 | 0.0 | 0.00 | 0.00 | 0.00 | 69 | 1021.8 | |
| 20260905211342 | 75 | 0.0 | 0.0 | 0.00 | 0.00 | 0.00 | 70 | 1023.2 | |
| 20260905210344 | 75 | 0.0 | 0.0 | 0.00 | 0.00 | 0.00 | 67 | 1023.4 | |
| 20260905205342 | 76 | 0.0 | 0.0 | 0.00 | 0.00 | 0.00 | 67 | 1022.8 | |
| 20260905204358 | 76 | 0.0 | 0.0 | 0.00 | 0.00 | 0.00 | 66 | 1023.0 | |
| 20260905203345 | 77 | 0.0 | 0.0 | 0.00 | 0.00 | 0.00 | 67 | 1023.2 | |
| 20260905202413 | 77 | 0.0 | 0.0 | 0.00 | 0.00 | 0.00 | 65 | 1022.9 | |
| 20260905201342 | 78 | 0.0 | 0.0 | 0.00 | 0.00 | 0.00 | 67 | 1023.6 | |
| 20260905200343 | 79 | 0.0 | 0.0 | 0.00 | 0.00 | 0.00 | 63 | 1022.4 | |
| 20260905195342 | 78 | 0.0 | 0.0 | 0.00 | 0.00 | 0.00 | 63 | 1022.4 | |
| 20260905194343 | 78 | 0.0 | 0.0 | 0.00 | 0.00 | 0.00 | 61 | 1022.5 | |
| 20260905193342 | 78 | 0.0 | 0.0 | 0.00 | 0.00 | 0.00 | 64 | 1029.4 | |
| 20260905192739 | 86 | 0.0 | 0.0 | 0.00 | 0.00 | 0.00 | 49 | 1021.4 | |
| 20260905173342 | 86 | 0.0 | 0.0 | 0.00 | 0.00 | 0.00 | 46 | 1021.1 | |
| 20260905172357 | 86 | 0.0 | 0.0 | 0.00 | 0.00 | 0.00 | 45 | 1021.3 | |
| 20260905171357 | 87 | 0.0 | 0.0 | 0.00 | 0.00 | 0.00 | 47 | 1021.3 | |
| 20260905170342 | 87 | 0.0 | 0.0 | 0.00 | 0.00 | 0.00 | 46 | 1021.3 | |
| 20260905165357 | 88 | 0.0 | 0.0 | 0.00 | 0.00 | 0.00 | 42 | 1021.2 | |
| 20260905164342 | 89 | 0.0 | 0.0 | 0.00 | 0.00 | 0.00 | 40 | 1021.1 | |
| 20260905163342 | 89 | 0.0 | 0.0 | 0.00 | 0.00 | 0.00 | 39 | 1020.9 | |
| 20260905162357 | 90 | 0.0 | 0.0 | 0.00 | 0.00 | 0.00 | 38 | 1020.8 | |
| 20260905161358 | 90 | 0.0 | 0.0 | 0.00 | 0.00 | 0.00 | 37 | 1020.7 | |
| 20260905160342 | 91 | 0.0 | 0.0 | 0.00 | 0.00 | 0.00 | 37 | 1020.8 | |
| 20260905155342 | 91 | 0.0 | 0.0 | 0.00 | 0.00 | 0.00 | 36 | 1021.0 | |
| 20260905154342 | 91 | 0.0 | 0.0 | 0.00 | 0.00 | 0.00 | 34 | 1020.5 | |
| 20260905153343 | 91 | 0.0 | 0.0 | 0.00 | 0.00 | 0.00 | 34 | 1021.0 | |
| 20260905152342 | 92 | 0.0 | 0.0 | 0.00 | 0.00 | 0.00 | 33 | 1020.8 | |
| 20260905151342 | 92 | 0.0 | 0.0 | 0.00 | 0.00 | 0.00 | 33 | 1021.0 | |
| 20260905150342 | 93 | 0.0 | 0.0 | 0.00 | 0.00 | 0.00 | 34 | 1020.6 | |
| 20260905145342 | 93 | 0.0 | 0.0 | 0.00 | 0.00 | 0.00 | 34 | 1020.8 | |
| 20260905144357 | 93 | 0.0 | 0.0 | 0.00 | 0.00 | 0.00 | 32 | 1021.0 | |
| 20260905143413 | 93 | 0.0 | 0.0 | 0.00 | 0.00 | 0.00 | 34 | 1020.6 | |
| 20260905142342 | 93 | 0.0 | 0.0 | 0.00 | 0.00 | 0.00 | 33 | 1021.2 | |
| 20260905141342 | 93 | 0.0 | 0.0 | 0.00 | 0.00 | 0.00 | 32 | 1020.7 | |
| 20260905140342 | 93 | 0.0 | 0.0 | 0.00 | 0.00 | 0.00 | 33 | 1021.0 | |
| 20260905135357 | 93 | 0.0 | 0.0 | 0.00 | 0.00 | 0.00 | 33 | 1021.1 | |
| 20260905134342 | 94 | 0.0 | 0.0 | 0.00 | 0.00 | 0.00 | 32 | 1021.1 | |
| 20260905133413 | 94 | 0.0 | 0.0 | 0.00 | 0.00 | 0.00 | 33 | 1020.9 | |
| 20260905132341 | 93 | 0.0 | 0.0 | 0.00 | 0.00 | 0.00 | 32 | 1022.1 | |
| 20260905131342 | 94 | 0.0 | 0.0 | 0.00 | 0.00 | 0.00 | 33 | 1020.6 | |
| 20260905130341 | 93 | 0.0 | 0.0 | 0.00 | 0.00 | 0.00 | 33 | 1021.7 | |
| 20260905125341 | 94 | 0.0 | 0.0 | 0.00 | 0.00 | 0.00 | 32 | 1021.6 | |
| 20260905124342 | 93 | 0.0 | 0.0 | 0.00 | 0.00 | 0.00 | 33 | 1021.2 | |
| 20260905123351 | 93 | 0.0 | 0.0 | 0.00 | 0.00 | 0.00 | 33 | 1023.0 | |
| 20260905122341 | 94 | 0.0 | 0.0 | 0.00 | 0.00 | 0.00 | 32 | 1022.2 | |
| 20260905121341 | 94 | 0.0 | 0.0 | 0.00 | 0.00 | 0.00 | 32 | 1022.5 | |
| 20260905120357 | 94 | 0.0 | 0.0 | 0.00 | 0.00 | 0.00 | 31 | 1022.5 | |
| 20260905115341 | 95 | 0.0 | 0.0 | 0.00 | 0.00 | 0.00 | 33 | 1021.0 | |
| 20260905114342 | 93 | 0.0 | 0.0 | 0.00 | 0.00 | 0.00 | 33 | 1023.2 | |
| 20260905113357 | 93 | 0.0 | 0.0 | 0.00 | 0.00 | 0.00 | 33 | 1023.1 | |
| 20260905112341 | 94 | 0.0 | 0.0 | 0.00 | 0.00 | 0.00 | 33 | 1022.4 | |
| 20260905111341 | 93 | 0.0 | 0.0 | 0.00 | 0.00 | 0.00 | 34 | 1022.2 | |
| 20260905110341 | 93 | 0.0 | 0.0 | 0.00 | 0.00 | 0.00 | 35 | 1022.4 | |
| 20260905105342 | 92 | 0.0 | 0.0 | 0.00 | 0.00 | 0.00 | 37 | 1023.7 | |
| 20260905104342 | 93 | 0.0 | 0.0 | 0.00 | 0.00 | 0.00 | 36 | 1022.8 | |
| 20260905103341 | 93 | 0.0 | 0.0 | 0.00 | 0.00 | 0.00 | 37 | 1021.3 | |
| 20260905102342 | 90 | 0.0 | 0.0 | 0.00 | 0.00 | 0.00 | 37 | 1022.7 | |
| 20260905101356 | 90 | 0.0 | 0.0 | 0.00 | 0.00 | 0.00 | 38 | 1023.9 | |
| 20260905100341 | 90 | 0.0 | 0.0 | 0.00 | 0.00 | 0.00 | 38 | 1024.2 | |
| 20260905095341 | 91 | 0.0 | 0.0 | 0.00 | 0.00 | 0.00 | 39 | 1023.0 | |
| 20260905094341 | 90 | 0.0 | 0.0 | 0.00 | 0.00 | 0.00 | 38 | 1023.2 | |
| 20260905093341 | 89 | 0.0 | 0.0 | 0.00 | 0.00 | 0.00 | 39 | 1024.3 | |
| 20260905092341 | 90 | 0.0 | 0.0 | 0.00 | 0.00 | 0.00 | 39 | 1024.3 | |
| 20260905091341 | 90 | 0.0 | 0.0 | 0.00 | 0.00 | 0.00 | 39 | 1023.2 | |
| 20260905090341 | 89 | 0.0 | 0.0 | 0.00 | 0.00 | 0.00 | 40 | 1023.9 | |
| 20260905085357 | 89 | 0.0 | 0.0 | 0.00 | 0.00 | 0.00 | 41 | 1023.2 | |
| 20260905084341 | 87 | 0.0 | 0.0 | 0.00 | 0.00 | 0.00 | 42 | 1023.9 | |
| 20260905083341 | 86 | 0.0 | 0.0 | 0.00 | 0.00 | 0.00 | 41 | 1023.3 | |
| 20260905082341 | 85 | 0.0 | 0.0 | 0.00 | 0.00 | 0.00 | 43 | 1023.3 | |
| 20260905081341 | 84 | 0.0 | 0.0 | 0.00 | 0.00 | 0.00 | 47 | 1023.7 | |
| 20260905080341 | 83 | 0.0 | 0.0 | 0.00 | 0.00 | 0.00 | 48 | 1025.0 | |
| 20260905075341 | 83 | 0.0 | 0.0 | 0.00 | 0.00 | 0.00 | 48 | 1023.0 | |
| 20260905074341 | 81 | 0.0 | 0.0 | 0.00 | 0.00 | 0.00 | 50 | 1024.4 | |
| 20260905073341 | 81 | 0.0 | 0.0 | 0.00 | 0.00 | 0.00 | 51 | 1024.7 | |
| 20260905072343 | 80 | 0.0 | 0.0 | 0.00 | 0.00 | 0.00 | 53 | 1023.8 | |
| 20260905071341 | 79 | 0.0 | 0.0 | 0.00 | 0.00 | 0.00 | 54 | 1024.0 | |
| 20260905070341 | 78 | 0.0 | 0.0 | 0.00 | 0.00 | 0.00 | 57 | 1024.4 |